sensor_id;sensor_type;location;lat;lon;timestamp;temperature;humidity
6379;DHT22;3222;48.858;10.128;2023-02-15T00:01:52;1.90;99.90
6379;DHT22;3222;48.858;10.128;2023-02-15T00:04:20;1.70;99.90
6379;DHT22;3222;48.858;10.128;2023-02-15T00:06:47;1.60;99.90
6379;DHT22;3222;48.858;10.128;2023-02-15T00:09:12;1.60;99.90
6379;DHT22;3222;48.858;10.128;2023-02-15T00:11:39;1.50;99.90
6379;DHT22;3222;48.858;10.128;2023-02-15T00:16:45;1.60;99.90
6379;DHT22;3222;48.858;10.128;2023-02-15T00:19:12;1.60;99.90
6379;DHT22;3222;48.858;10.128;2023-02-15T00:21:39;1.50;99.90
6379;DHT22;3222;48.858;10.128;2023-02-15T00:24:07;1.60;99.90
6379;DHT22;3222;48.858;10.128;2023-02-15T00:26:33;1.60;99.90
6379;DHT22;3222;48.858;10.128;2023-02-15T00:28:59;1.50;99.90
6379;DHT22;3222;48.858;10.128;2023-02-15T00:31:27;1.50;99.90
6379;DHT22;3222;48.858;10.128;2023-02-15T00:33:55;1.40;99.90
6379;DHT22;3222;48.858;10.128;2023-02-15T00:36:20;1.40;99.90
6379;DHT22;3222;48.858;10.128;2023-02-15T00:38:47;1.50;99.90
6379;DHT22;3222;48.858;10.128;2023-02-15T00:41:13;1.50;99.90
6379;DHT22;3222;48.858;10.128;2023-02-15T00:43:39;1.60;99.90
6379;DHT22;3222;48.858;10.128;2023-02-15T00:46:05;1.80;99.90
6379;DHT22;3222;48.858;10.128;2023-02-15T00:48:31;1.80;99.90
6379;DHT22;3222;48.858;10.128;2023-02-15T00:50:58;1.70;99.90
6379;DHT22;3222;48.858;10.128;2023-02-15T00:53:25;1.60;99.90
6379;DHT22;3222;48.858;10.128;2023-02-15T00:55:52;1.50;99.90
6379;DHT22;3222;48.858;10.128;2023-02-15T00:58:17;1.50;99.90
6379;DHT22;3222;48.858;10.128;2023-02-15T01:00:46;1.50;99.90
6379;DHT22;3222;48.858;10.128;2023-02-15T01:03:13;1.50;99.90
6379;DHT22;3222;48.858;10.128;2023-02-15T01:05:39;1.50;99.90
6379;DHT22;3222;48.858;10.128;2023-02-15T01:08:05;1.50;99.90
6379;DHT22;3222;48.858;10.128;2023-02-15T01:10:31;1.40;99.90
6379;DHT22;3222;48.858;10.128;2023-02-15T01:12:57;1.40;99.90
6379;DHT22;3222;48.858;10.128;2023-02-15T01:15:23;1.40;99.90
6379;DHT22;3222;48.858;10.128;2023-02-15T01:17:49;1.40;99.90
6379;DHT22;3222;48.858;10.128;2023-02-15T01:20:19;1.40;99.90
6379;DHT22;3222;48.858;10.128;2023-02-15T01:22:45;1.50;99.90
6379;DHT22;3222;48.858;10.128;2023-02-15T01:25:10;1.50;99.90
6379;DHT22;3222;48.858;10.128;2023-02-15T01:27:36;1.40;99.90
6379;DHT22;3222;48.858;10.128;2023-02-15T01:30:02;1.40;99.90
6379;DHT22;3222;48.858;10.128;2023-02-15T01:32:30;1.50;99.90
6379;DHT22;3222;48.858;10.128;2023-02-15T01:34:56;1.40;99.90
6379;DHT22;3222;48.858;10.128;2023-02-15T01:37:21;1.40;99.90
6379;DHT22;3222;48.858;10.128;2023-02-15T01:39:47;1.30;99.90
6379;DHT22;3222;48.858;10.128;2023-02-15T01:42:13;1.30;99.90
6379;DHT22;3222;48.858;10.128;2023-02-15T01:49:46;1.30;99.90
6379;DHT22;3222;48.858;10.128;2023-02-15T01:52:15;1.20;99.90
6379;DHT22;3222;48.858;10.128;2023-02-15T01:54:45;1.30;99.90
6379;DHT22;3222;48.858;10.128;2023-02-15T01:57:15;1.20;99.90
6379;DHT22;3222;48.858;10.128;2023-02-15T01:59:44;1.20;99.90
6379;DHT22;3222;48.858;10.128;2023-02-15T02:02:13;1.20;99.90
6379;DHT22;3222;48.858;10.128;2023-02-15T02:04:45;1.20;99.90
6379;DHT22;3222;48.858;10.128;2023-02-15T02:07:16;1.30;99.90
6379;DHT22;3222;48.858;10.128;2023-02-15T02:09:43;1.50;99.90
6379;DHT22;3222;48.858;10.128;2023-02-15T02:12:10;1.50;99.90
6379;DHT22;3222;48.858;10.128;2023-02-15T02:14:39;1.40;99.90
6379;DHT22;3222;48.858;10.128;2023-02-15T02:17:29;1.30;99.90
6379;DHT22;3222;48.858;10.128;2023-02-15T02:23:02;1.20;99.90
6379;DHT22;3222;48.858;10.128;2023-02-15T02:29:11;1.10;99.90
6379;DHT22;3222;48.858;10.128;2023-02-15T02:34:58;1.00;99.90
6379;DHT22;3222;48.858;10.128;2023-02-15T02:38:32;1.00;99.90
6379;DHT22;3222;48.858;10.128;2023-02-15T02:46:22;1.00;99.90
6379;DHT22;3222;48.858;10.128;2023-02-15T02:48:48;0.90;99.90
6379;DHT22;3222;48.858;10.128;2023-02-15T02:51:14;1.00;99.90
6379;DHT22;3222;48.858;10.128;2023-02-15T02:53:48;1.10;99.90
6379;DHT22;3222;48.858;10.128;2023-02-15T02:56:30;1.10;99.90
6379;DHT22;3222;48.858;10.128;2023-02-15T02:59:25;1.00;99.90
6379;DHT22;3222;48.858;10.128;2023-02-15T03:01:56;1.00;99.90
6379;DHT22;3222;48.858;10.128;2023-02-15T03:04:35;1.00;99.90
6379;DHT22;3222;48.858;10.128;2023-02-15T03:07:06;0.90;99.90
6379;DHT22;3222;48.858;10.128;2023-02-15T03:09:45;0.90;99.90
6379;DHT22;3222;48.858;10.128;2023-02-15T03:14:50;1.00;99.90
6379;DHT22;3222;48.858;10.128;2023-02-15T03:17:18;1.00;99.90
6379;DHT22;3222;48.858;10.128;2023-02-15T03:19:46;1.20;99.90
6379;DHT22;3222;48.858;10.128;2023-02-15T03:22:17;1.20;99.90
6379;DHT22;3222;48.858;10.128;2023-02-15T03:24:58;1.30;99.90
6379;DHT22;3222;48.858;10.128;2023-02-15T03:27:31;1.20;99.90
6379;DHT22;3222;48.858;10.128;2023-02-15T03:30:02;1.10;99.90
6379;DHT22;3222;48.858;10.128;2023-02-15T03:32:30;1.10;99.90
6379;DHT22;3222;48.858;10.128;2023-02-15T03:34:57;1.00;99.90
6379;DHT22;3222;48.858;10.128;2023-02-15T03:40:19;1.00;99.90
6379;DHT22;3222;48.858;10.128;2023-02-15T03:46:35;0.90;99.90
6379;DHT22;3222;48.858;10.128;2023-02-15T03:52:11;0.90;99.90
6379;DHT22;3222;48.858;10.128;2023-02-15T03:54:39;1.00;99.90
6379;DHT22;3222;48.858;10.128;2023-02-15T03:57:23;1.00;99.90
6379;DHT22;3222;48.858;10.128;2023-02-15T04:00:24;0.90;99.90
6379;DHT22;3222;48.858;10.128;2023-02-15T04:05:41;0.90;99.90
6379;DHT22;3222;48.858;10.128;2023-02-15T04:08:07;0.90;99.90
6379;DHT22;3222;48.858;10.128;2023-02-15T04:10:33;0.90;99.90
6379;DHT22;3222;48.858;10.128;2023-02-15T04:13:21;0.90;99.90
6379;DHT22;3222;48.858;10.128;2023-02-15T04:15:46;0.90;99.90
6379;DHT22;3222;48.858;10.128;2023-02-15T04:18:40;0.90;99.90
6379;DHT22;3222;48.858;10.128;2023-02-15T04:21:26;0.80;99.90
6379;DHT22;3222;48.858;10.128;2023-02-15T04:24:11;0.80;99.90
6379;DHT22;3222;48.858;10.128;2023-02-15T04:26:55;0.80;99.90
6379;DHT22;3222;48.858;10.128;2023-02-15T04:29:23;0.80;99.90
6379;DHT22;3222;48.858;10.128;2023-02-15T04:31:49;0.80;99.90
6379;DHT22;3222;48.858;10.128;2023-02-15T04:34:15;0.90;99.90
6379;DHT22;3222;48.858;10.128;2023-02-15T04:36:41;1.10;99.90
6379;DHT22;3222;48.858;10.128;2023-02-15T04:39:08;1.30;99.90
6379;DHT22;3222;48.858;10.128;2023-02-15T04:41:34;1.10;99.90
6379;DHT22;3222;48.858;10.128;2023-02-15T04:44:00;1.00;99.90
6379;DHT22;3222;48.858;10.128;2023-02-15T04:46:27;0.90;99.90
6379;DHT22;3222;48.858;10.128;2023-02-15T04:48:54;0.80;99.90
6379;DHT22;3222;48.858;10.128;2023-02-15T04:51:19;0.80;99.90
6379;DHT22;3222;48.858;10.128;2023-02-15T04:53:45;0.90;99.90
6379;DHT22;3222;48.858;10.128;2023-02-15T04:56:11;1.20;99.90
6379;DHT22;3222;48.858;10.128;2023-02-15T04:58:37;1.30;99.90
6379;DHT22;3222;48.858;10.128;2023-02-15T05:01:06;1.10;99.90
6379;DHT22;3222;48.858;10.128;2023-02-15T05:03:32;1.00;99.90
6379;DHT22;3222;48.858;10.128;2023-02-15T05:05:59;0.90;99.90
6379;DHT22;3222;48.858;10.128;2023-02-15T05:08:24;0.80;99.90
6379;DHT22;3222;48.858;10.128;2023-02-15T05:10:50;0.80;99.90
6379;DHT22;3222;48.858;10.128;2023-02-15T05:13:16;0.70;99.90
6379;DHT22;3222;48.858;10.128;2023-02-15T05:15:45;0.70;99.90
6379;DHT22;3222;48.858;10.128;2023-02-15T05:18:11;0.70;99.90
6379;DHT22;3222;48.858;10.128;2023-02-15T05:20:37;0.70;99.90
6379;DHT22;3222;48.858;10.128;2023-02-15T05:23:02;0.60;99.90
6379;DHT22;3222;48.858;10.128;2023-02-15T05:25:28;0.80;99.90
6379;DHT22;3222;48.858;10.128;2023-02-15T05:28:12;0.80;99.90
6379;DHT22;3222;48.858;10.128;2023-02-15T05:30:52;0.70;99.90
6379;DHT22;3222;48.858;10.128;2023-02-15T05:33:24;0.80;99.90
6379;DHT22;3222;48.858;10.128;2023-02-15T05:35:49;0.90;99.90
6379;DHT22;3222;48.858;10.128;2023-02-15T05:38:16;0.90;99.90
6379;DHT22;3222;48.858;10.128;2023-02-15T05:40:42;0.80;99.90
6379;DHT22;3222;48.858;10.128;2023-02-15T05:43:07;0.70;99.90
6379;DHT22;3222;48.858;10.128;2023-02-15T05:45:33;0.70;99.90
6379;DHT22;3222;48.858;10.128;2023-02-15T05:47:58;0.90;99.90
6379;DHT22;3222;48.858;10.128;2023-02-15T05:50:25;0.90;99.90
6379;DHT22;3222;48.858;10.128;2023-02-15T05:52:51;0.80;99.90
6379;DHT22;3222;48.858;10.128;2023-02-15T05:55:17;0.70;99.90
6379;DHT22;3222;48.858;10.128;2023-02-15T05:57:42;0.70;99.90
6379;DHT22;3222;48.858;10.128;2023-02-15T06:00:08;0.70;99.90
6379;DHT22;3222;48.858;10.128;2023-02-15T06:02:38;0.60;99.90
6379;DHT22;3222;48.858;10.128;2023-02-15T06:05:04;0.60;99.90
6379;DHT22;3222;48.858;10.128;2023-02-15T06:07:31;0.70;99.90
6379;DHT22;3222;48.858;10.128;2023-02-15T06:09:57;0.70;99.90
6379;DHT22;3222;48.858;10.128;2023-02-15T06:12:22;1.10;99.90
6379;DHT22;3222;48.858;10.128;2023-02-15T06:14:48;1.20;99.90
6379;DHT22;3222;48.858;10.128;2023-02-15T06:17:13;0.90;99.90
6379;DHT22;3222;48.858;10.128;2023-02-15T06:19:39;0.70;99.90
6379;DHT22;3222;48.858;10.128;2023-02-15T06:22:05;0.60;99.90
6379;DHT22;3222;48.858;10.128;2023-02-15T06:24:32;0.50;99.90
6379;DHT22;3222;48.858;10.128;2023-02-15T06:26:57;0.50;99.90
6379;DHT22;3222;48.858;10.128;2023-02-15T06:29:23;0.60;99.90
6379;DHT22;3222;48.858;10.128;2023-02-15T06:31:49;0.50;99.90
6379;DHT22;3222;48.858;10.128;2023-02-15T06:34:15;0.50;99.90
6379;DHT22;3222;48.858;10.128;2023-02-15T06:36:40;0.40;99.90
6379;DHT22;3222;48.858;10.128;2023-02-15T06:39:06;0.40;99.90
6379;DHT22;3222;48.858;10.128;2023-02-15T06:41:32;0.40;99.90
6379;DHT22;3222;48.858;10.128;2023-02-15T06:43:57;0.40;99.90
6379;DHT22;3222;48.858;10.128;2023-02-15T06:46:23;0.40;99.90
6379;DHT22;3222;48.858;10.128;2023-02-15T06:48:49;0.40;99.90
6379;DHT22;3222;48.858;10.128;2023-02-15T06:51:14;0.40;99.90
6379;DHT22;3222;48.858;10.128;2023-02-15T06:53:40;0.40;99.90
6379;DHT22;3222;48.858;10.128;2023-02-15T06:56:09;0.40;99.90
6379;DHT22;3222;48.858;10.128;2023-02-15T06:58:37;0.40;99.90
6379;DHT22;3222;48.858;10.128;2023-02-15T07:01:03;0.40;99.90
6379;DHT22;3222;48.858;10.128;2023-02-15T07:03:29;0.60;99.90
6379;DHT22;3222;48.858;10.128;2023-02-15T07:05:56;0.60;99.90
6379;DHT22;3222;48.858;10.128;2023-02-15T07:08:24;0.50;99.90
6379;DHT22;3222;48.858;10.128;2023-02-15T07:10:50;0.50;99.90
6379;DHT22;3222;48.858;10.128;2023-02-15T07:13:16;0.40;99.90
6379;DHT22;3222;48.858;10.128;2023-02-15T07:15:43;0.50;99.90
6379;DHT22;3222;48.858;10.128;2023-02-15T07:18:08;0.50;99.90
6379;DHT22;3222;48.858;10.128;2023-02-15T07:20:36;0.50;99.90
6379;DHT22;3222;48.858;10.128;2023-02-15T07:23:02;0.70;99.90
6379;DHT22;3222;48.858;10.128;2023-02-15T07:25:28;0.70;99.90
6379;DHT22;3222;48.858;10.128;2023-02-15T07:27:58;0.80;99.90
6379;DHT22;3222;48.858;10.128;2023-02-15T07:30:27;0.60;99.90
6379;DHT22;3222;48.858;10.128;2023-02-15T07:32:57;0.60;99.90
6379;DHT22;3222;48.858;10.128;2023-02-15T07:35:56;0.70;99.90
6379;DHT22;3222;48.858;10.128;2023-02-15T07:38:31;0.90;99.90
6379;DHT22;3222;48.858;10.128;2023-02-15T07:41:01;0.80;99.90
6379;DHT22;3222;48.858;10.128;2023-02-15T07:43:28;0.70;99.90
6379;DHT22;3222;48.858;10.128;2023-02-15T07:45:58;0.60;99.90
6379;DHT22;3222;48.858;10.128;2023-02-15T07:48:24;0.60;99.90
6379;DHT22;3222;48.858;10.128;2023-02-15T07:50:50;0.60;99.90
6379;DHT22;3222;48.858;10.128;2023-02-15T07:53:15;1.00;99.90
6379;DHT22;3222;48.858;10.128;2023-02-15T07:55:41;1.00;99.90
6379;DHT22;3222;48.858;10.128;2023-02-15T07:58:07;1.00;99.90
6379;DHT22;3222;48.858;10.128;2023-02-15T08:00:32;1.00;99.90
6379;DHT22;3222;48.858;10.128;2023-02-15T08:03:18;1.10;99.90
6379;DHT22;3222;48.858;10.128;2023-02-15T08:05:45;1.00;99.90
6379;DHT22;3222;48.858;10.128;2023-02-15T08:08:11;0.90;99.90
6379;DHT22;3222;48.858;10.128;2023-02-15T08:14:01;1.20;99.90
6379;DHT22;3222;48.858;10.128;2023-02-15T08:16:37;1.20;99.90
6379;DHT22;3222;48.858;10.128;2023-02-15T08:21:42;1.30;99.90
6379;DHT22;3222;48.858;10.128;2023-02-15T08:24:10;1.50;99.90
6379;DHT22;3222;48.858;10.128;2023-02-15T08:26:37;1.30;99.90
6379;DHT22;3222;48.858;10.128;2023-02-15T08:29:05;1.40;99.90
6379;DHT22;3222;48.858;10.128;2023-02-15T08:31:32;1.50;99.90
6379;DHT22;3222;48.858;10.128;2023-02-15T08:33:58;1.60;99.90
6379;DHT22;3222;48.858;10.128;2023-02-15T08:36:27;1.80;99.90
6379;DHT22;3222;48.858;10.128;2023-02-15T08:38:54;1.80;99.90
6379;DHT22;3222;48.858;10.128;2023-02-15T08:41:22;1.80;99.90
6379;DHT22;3222;48.858;10.128;2023-02-15T08:43:50;1.90;99.90
6379;DHT22;3222;48.858;10.128;2023-02-15T08:46:17;2.00;99.90
6379;DHT22;3222;48.858;10.128;2023-02-15T08:48:43;2.20;99.90
6379;DHT22;3222;48.858;10.128;2023-02-15T08:53:40;2.50;99.90
6379;DHT22;3222;48.858;10.128;2023-02-15T08:56:07;2.40;99.90
6379;DHT22;3222;48.858;10.128;2023-02-15T08:58:34;2.40;99.90
6379;DHT22;3222;48.858;10.128;2023-02-15T09:01:00;2.40;99.90
6379;DHT22;3222;48.858;10.128;2023-02-15T09:03:28;2.40;99.90
6379;DHT22;3222;48.858;10.128;2023-02-15T09:06:01;2.60;99.90
6379;DHT22;3222;48.858;10.128;2023-02-15T09:08:27;2.80;99.90
6379;DHT22;3222;48.858;10.128;2023-02-15T09:10:53;3.00;99.90
6379;DHT22;3222;48.858;10.128;2023-02-15T09:13:19;3.00;99.90
6379;DHT22;3222;48.858;10.128;2023-02-15T09:15:46;3.10;99.90
6379;DHT22;3222;48.858;10.128;2023-02-15T09:18:11;3.20;99.90
6379;DHT22;3222;48.858;10.128;2023-02-15T09:20:43;3.20;99.90
6379;DHT22;3222;48.858;10.128;2023-02-15T09:23:09;3.30;99.90
6379;DHT22;3222;48.858;10.128;2023-02-15T09:25:35;3.40;99.90
6379;DHT22;3222;48.858;10.128;2023-02-15T09:28:02;3.50;99.90
6379;DHT22;3222;48.858;10.128;2023-02-15T09:30:27;3.50;99.90
6379;DHT22;3222;48.858;10.128;2023-02-15T09:32:53;3.40;99.90
6379;DHT22;3222;48.858;10.128;2023-02-15T09:35:18;3.50;99.90
6379;DHT22;3222;48.858;10.128;2023-02-15T09:37:44;3.50;99.90
6379;DHT22;3222;48.858;10.128;2023-02-15T09:40:12;3.50;99.90
6379;DHT22;3222;48.858;10.128;2023-02-15T09:42:46;3.60;99.90
6379;DHT22;3222;48.858;10.128;2023-02-15T09:54:03;4.00;99.90
6379;DHT22;3222;48.858;10.128;2023-02-15T09:56:38;4.10;99.90
6379;DHT22;3222;48.858;10.128;2023-02-15T09:59:24;4.10;99.90
6379;DHT22;3222;48.858;10.128;2023-02-15T10:07:33;4.50;99.90
6379;DHT22;3222;48.858;10.128;2023-02-15T10:26:47;5.20;99.90
6379;DHT22;3222;48.858;10.128;2023-02-15T10:31:56;5.20;99.90
6379;DHT22;3222;48.858;10.128;2023-02-15T10:35:00;5.30;99.90
6379;DHT22;3222;48.858;10.128;2023-02-15T10:40:22;5.50;99.90
6379;DHT22;3222;48.858;10.128;2023-02-15T10:43:14;5.50;99.90
6379;DHT22;3222;48.858;10.128;2023-02-15T10:51:14;5.70;99.90
6379;DHT22;3222;48.858;10.128;2023-02-15T10:56:34;5.90;99.90
6379;DHT22;3222;48.858;10.128;2023-02-15T10:59:05;6.00;99.90
6379;DHT22;3222;48.858;10.128;2023-02-15T11:01:43;6.00;99.90
6379;DHT22;3222;48.858;10.128;2023-02-15T11:06:56;6.30;99.90
6379;DHT22;3222;48.858;10.128;2023-02-15T11:09:25;6.40;99.90
6379;DHT22;3222;48.858;10.128;2023-02-15T11:11:56;6.50;99.90
6379;DHT22;3222;48.858;10.128;2023-02-15T11:17:16;6.50;99.90
6379;DHT22;3222;48.858;10.128;2023-02-15T11:19:58;6.60;99.90
6379;DHT22;3222;48.858;10.128;2023-02-15T11:22:28;6.60;99.90
6379;DHT22;3222;48.858;10.128;2023-02-15T11:24:55;6.70;99.90
6379;DHT22;3222;48.858;10.128;2023-02-15T11:27:31;6.70;99.90
6379;DHT22;3222;48.858;10.128;2023-02-15T11:30:10;6.70;99.90
6379;DHT22;3222;48.858;10.128;2023-02-15T11:32:45;6.60;99.90
6379;DHT22;3222;48.858;10.128;2023-02-15T11:37:57;6.70;99.90
6379;DHT22;3222;48.858;10.128;2023-02-15T11:40:30;6.70;99.90
6379;DHT22;3222;48.858;10.128;2023-02-15T11:43:00;6.80;99.90
6379;DHT22;3222;48.858;10.128;2023-02-15T11:45:33;7.00;99.90
6379;DHT22;3222;48.858;10.128;2023-02-15T11:48:00;7.20;99.90
6379;DHT22;3222;48.858;10.128;2023-02-15T11:50:32;7.40;99.90
6379;DHT22;3222;48.858;10.128;2023-02-15T11:53:01;7.40;99.90
6379;DHT22;3222;48.858;10.128;2023-02-15T11:55:28;7.60;99.90
6379;DHT22;3222;48.858;10.128;2023-02-15T12:00:50;7.70;99.90
6379;DHT22;3222;48.858;10.128;2023-02-15T12:03:29;7.70;99.90
6379;DHT22;3222;48.858;10.128;2023-02-15T12:06:02;7.70;99.90
6379;DHT22;3222;48.858;10.128;2023-02-15T12:08:37;7.90;99.90
6379;DHT22;3222;48.858;10.128;2023-02-15T12:11:10;7.90;99.90
6379;DHT22;3222;48.858;10.128;2023-02-15T12:14:01;7.80;99.90
6379;DHT22;3222;48.858;10.128;2023-02-15T12:16:27;7.80;99.90
6379;DHT22;3222;48.858;10.128;2023-02-15T12:18:59;7.80;99.90
6379;DHT22;3222;48.858;10.128;2023-02-15T12:21:34;7.70;99.90
6379;DHT22;3222;48.858;10.128;2023-02-15T12:24:29;7.70;99.90
6379;DHT22;3222;48.858;10.128;2023-02-15T12:27:12;7.80;99.90
6379;DHT22;3222;48.858;10.128;2023-02-15T12:29:47;7.90;99.90
6379;DHT22;3222;48.858;10.128;2023-02-15T12:32:30;7.90;99.90
6379;DHT22;3222;48.858;10.128;2023-02-15T12:35:08;8.00;99.90
6379;DHT22;3222;48.858;10.128;2023-02-15T12:37:35;8.00;99.90
6379;DHT22;3222;48.858;10.128;2023-02-15T12:40:18;8.10;99.90
6379;DHT22;3222;48.858;10.128;2023-02-15T12:42:44;8.20;99.90
6379;DHT22;3222;48.858;10.128;2023-02-15T12:45:32;8.30;99.90
6379;DHT22;3222;48.858;10.128;2023-02-15T12:50:50;8.60;99.90
6379;DHT22;3222;48.858;10.128;2023-02-15T12:53:18;8.70;99.90
6379;DHT22;3222;48.858;10.128;2023-02-15T12:56:01;8.70;99.90
6379;DHT22;3222;48.858;10.128;2023-02-15T12:58:38;8.80;99.90
6379;DHT22;3222;48.858;10.128;2023-02-15T13:01:14;8.70;99.90
6379;DHT22;3222;48.858;10.128;2023-02-15T13:04:04;8.80;99.90
6379;DHT22;3222;48.858;10.128;2023-02-15T13:06:34;8.80;99.90
6379;DHT22;3222;48.858;10.128;2023-02-15T13:09:33;8.80;99.90
6379;DHT22;3222;48.858;10.128;2023-02-15T13:12:17;9.00;99.90
6379;DHT22;3222;48.858;10.128;2023-02-15T13:14:45;9.00;99.90
6379;DHT22;3222;48.858;10.128;2023-02-15T13:17:12;9.10;99.90
6379;DHT22;3222;48.858;10.128;2023-02-15T13:22:52;9.50;99.90
6379;DHT22;3222;48.858;10.128;2023-02-15T13:25:32;9.50;99.90
6379;DHT22;3222;48.858;10.128;2023-02-15T13:28:02;9.50;99.90
6379;DHT22;3222;48.858;10.128;2023-02-15T13:30:34;9.50;99.90
6379;DHT22;3222;48.858;10.128;2023-02-15T13:38:54;9.90;99.90
6379;DHT22;3222;48.858;10.128;2023-02-15T13:41:32;10.00;99.90
6379;DHT22;3222;48.858;10.128;2023-02-15T13:44:20;10.20;99.90
6379;DHT22;3222;48.858;10.128;2023-02-15T13:49:39;10.40;99.90
6379;DHT22;3222;48.858;10.128;2023-02-15T13:52:27;10.60;99.90
6379;DHT22;3222;48.858;10.128;2023-02-15T13:58:19;10.70;99.90
6379;DHT22;3222;48.858;10.128;2023-02-15T14:23:56;10.90;99.90
6379;DHT22;3222;48.858;10.128;2023-02-15T14:29:33;11.10;99.90
6379;DHT22;3222;48.858;10.128;2023-02-15T14:34:55;11.60;99.90
6379;DHT22;3222;48.858;10.128;2023-02-15T14:37:31;11.50;99.90
6379;DHT22;3222;48.858;10.128;2023-02-15T14:43:11;11.40;99.90
6379;DHT22;3222;48.858;10.128;2023-02-15T14:48:33;11.20;99.90
6379;DHT22;3222;48.858;10.128;2023-02-15T14:51:01;11.20;99.90
6379;DHT22;3222;48.858;10.128;2023-02-15T14:58:33;11.30;99.90
6379;DHT22;3222;48.858;10.128;2023-02-15T15:01:07;11.40;99.90
6379;DHT22;3222;48.858;10.128;2023-02-15T15:03:35;11.40;99.90
6379;DHT22;3222;48.858;10.128;2023-02-15T15:06:03;11.40;99.90
6379;DHT22;3222;48.858;10.128;2023-02-15T15:08:40;11.30;99.90
6379;DHT22;3222;48.858;10.128;2023-02-15T15:13:58;11.20;99.90
6379;DHT22;3222;48.858;10.128;2023-02-15T15:18:57;10.80;99.90
6379;DHT22;3222;48.858;10.128;2023-02-15T15:32:58;10.50;99.90
6379;DHT22;3222;48.858;10.128;2023-02-15T15:40:41;10.20;99.90
6379;DHT22;3222;48.858;10.128;2023-02-15T15:43:24;10.10;99.90
6379;DHT22;3222;48.858;10.128;2023-02-15T15:48:49;9.90;99.90
6379;DHT22;3222;48.858;10.128;2023-02-15T15:51:32;9.90;99.90
6379;DHT22;3222;48.858;10.128;2023-02-15T15:54:00;9.80;99.90
6379;DHT22;3222;48.858;10.128;2023-02-15T15:56:30;9.60;99.90
6379;DHT22;3222;48.858;10.128;2023-02-15T15:59:00;9.50;99.90
6379;DHT22;3222;48.858;10.128;2023-02-15T16:01:34;9.50;99.90
6379;DHT22;3222;48.858;10.128;2023-02-15T16:04:01;9.40;99.90
6379;DHT22;3222;48.858;10.128;2023-02-15T16:06:33;9.30;99.90
6379;DHT22;3222;48.858;10.128;2023-02-15T16:09:20;9.20;99.90
6379;DHT22;3222;48.858;10.128;2023-02-15T16:11:50;9.20;99.90
6379;DHT22;3222;48.858;10.128;2023-02-15T16:14:32;9.00;99.90
6379;DHT22;3222;48.858;10.128;2023-02-15T16:17:04;8.90;99.90
6379;DHT22;3222;48.858;10.128;2023-02-15T16:19:36;8.70;99.90
6379;DHT22;3222;48.858;10.128;2023-02-15T16:22:09;8.60;99.90
6379;DHT22;3222;48.858;10.128;2023-02-15T16:27:39;8.50;99.90
6379;DHT22;3222;48.858;10.128;2023-02-15T16:30:28;8.40;99.90
6379;DHT22;3222;48.858;10.128;2023-02-15T16:33:15;8.30;99.90
6379;DHT22;3222;48.858;10.128;2023-02-15T16:35:57;8.30;99.90
6379;DHT22;3222;48.858;10.128;2023-02-15T16:41:10;8.10;99.90
6379;DHT22;3222;48.858;10.128;2023-02-15T16:43:37;8.00;99.90
6379;DHT22;3222;48.858;10.128;2023-02-15T16:46:08;7.90;99.90
6379;DHT22;3222;48.858;10.128;2023-02-15T16:48:39;7.80;99.90
6379;DHT22;3222;48.858;10.128;2023-02-15T16:51:06;7.70;99.90
6379;DHT22;3222;48.858;10.128;2023-02-15T16:53:33;7.60;99.90
6379;DHT22;3222;48.858;10.128;2023-02-15T16:56:01;7.60;99.90
6379;DHT22;3222;48.858;10.128;2023-02-15T16:58:37;7.50;99.90
6379;DHT22;3222;48.858;10.128;2023-02-15T17:01:07;7.40;99.90
6379;DHT22;3222;48.858;10.128;2023-02-15T17:03:34;7.30;99.90
6379;DHT22;3222;48.858;10.128;2023-02-15T17:06:01;7.40;99.90
6379;DHT22;3222;48.858;10.128;2023-02-15T17:08:33;7.30;99.90
6379;DHT22;3222;48.858;10.128;2023-02-15T17:13:27;7.10;99.90
6379;DHT22;3222;48.858;10.128;2023-02-15T17:18:27;7.00;99.90
6379;DHT22;3222;48.858;10.128;2023-02-15T17:21:00;6.90;99.90
6379;DHT22;3222;48.858;10.128;2023-02-15T17:23:31;6.80;99.90
6379;DHT22;3222;48.858;10.128;2023-02-15T17:25:58;6.80;99.90
6379;DHT22;3222;48.858;10.128;2023-02-15T17:28:28;6.70;99.90
6379;DHT22;3222;48.858;10.128;2023-02-15T17:30:56;6.70;99.90
6379;DHT22;3222;48.858;10.128;2023-02-15T17:33:25;6.70;99.90
6379;DHT22;3222;48.858;10.128;2023-02-15T17:38:37;6.60;99.90
6379;DHT22;3222;48.858;10.128;2023-02-15T17:41:03;6.50;99.90
6379;DHT22;3222;48.858;10.128;2023-02-15T17:43:28;6.50;99.90
6379;DHT22;3222;48.858;10.128;2023-02-15T17:45:54;6.40;99.90
6379;DHT22;3222;48.858;10.128;2023-02-15T17:48:30;6.50;99.90
6379;DHT22;3222;48.858;10.128;2023-02-15T17:50:57;6.40;99.90
6379;DHT22;3222;48.858;10.128;2023-02-15T17:53:23;6.30;99.90
6379;DHT22;3222;48.858;10.128;2023-02-15T17:55:50;6.30;99.90
6379;DHT22;3222;48.858;10.128;2023-02-15T17:58:17;6.30;99.90
6379;DHT22;3222;48.858;10.128;2023-02-15T18:01:10;6.30;99.90
6379;DHT22;3222;48.858;10.128;2023-02-15T18:03:57;6.20;99.90
6379;DHT22;3222;48.858;10.128;2023-02-15T18:06:42;6.20;99.90
6379;DHT22;3222;48.858;10.128;2023-02-15T18:09:27;6.20;99.90
6379;DHT22;3222;48.858;10.128;2023-02-15T18:12:17;6.10;99.90
6379;DHT22;3222;48.858;10.128;2023-02-15T18:14:44;6.10;99.90
6379;DHT22;3222;48.858;10.128;2023-02-15T18:17:14;6.00;99.90
6379;DHT22;3222;48.858;10.128;2023-02-15T18:19:41;6.00;99.90
6379;DHT22;3222;48.858;10.128;2023-02-15T18:22:11;6.00;99.90
6379;DHT22;3222;48.858;10.128;2023-02-15T18:24:37;6.00;99.90
6379;DHT22;3222;48.858;10.128;2023-02-15T18:27:04;5.90;99.90
6379;DHT22;3222;48.858;10.128;2023-02-15T18:29:30;5.90;99.90
6379;DHT22;3222;48.858;10.128;2023-02-15T18:31:57;5.90;99.90
6379;DHT22;3222;48.858;10.128;2023-02-15T18:34:28;5.90;99.90
6379;DHT22;3222;48.858;10.128;2023-02-15T18:36:57;5.80;99.90
6379;DHT22;3222;48.858;10.128;2023-02-15T18:39:36;5.80;99.90
6379;DHT22;3222;48.858;10.128;2023-02-15T18:42:04;5.80;99.90
6379;DHT22;3222;48.858;10.128;2023-02-15T18:44:30;5.70;99.90
6379;DHT22;3222;48.858;10.128;2023-02-15T18:47:07;5.70;99.90
6379;DHT22;3222;48.858;10.128;2023-02-15T18:49:33;5.70;99.90
6379;DHT22;3222;48.858;10.128;2023-02-15T18:51:58;5.70;99.90
6379;DHT22;3222;48.858;10.128;2023-02-15T18:54:25;5.70;99.90
6379;DHT22;3222;48.858;10.128;2023-02-15T18:56:56;5.70;99.90
6379;DHT22;3222;48.858;10.128;2023-02-15T18:59:24;5.60;99.90
6379;DHT22;3222;48.858;10.128;2023-02-15T19:01:50;5.60;99.90
6379;DHT22;3222;48.858;10.128;2023-02-15T19:04:17;5.60;99.90
6379;DHT22;3222;48.858;10.128;2023-02-15T19:06:45;5.50;99.90
6379;DHT22;3222;48.858;10.128;2023-02-15T19:09:14;5.50;99.90
6379;DHT22;3222;48.858;10.128;2023-02-15T19:11:46;5.50;99.90
6379;DHT22;3222;48.858;10.128;2023-02-15T19:14:31;5.50;99.90
6379;DHT22;3222;48.858;10.128;2023-02-15T19:16:59;5.50;99.90
6379;DHT22;3222;48.858;10.128;2023-02-15T19:19:25;5.40;99.90
6379;DHT22;3222;48.858;10.128;2023-02-15T19:21:52;5.40;99.90
6379;DHT22;3222;48.858;10.128;2023-02-15T19:24:21;5.40;99.90
6379;DHT22;3222;48.858;10.128;2023-02-15T19:26:48;5.40;99.90
6379;DHT22;3222;48.858;10.128;2023-02-15T19:29:20;5.30;99.90
6379;DHT22;3222;48.858;10.128;2023-02-15T19:31:48;5.30;99.90
6379;DHT22;3222;48.858;10.128;2023-02-15T19:34:16;5.30;99.90
6379;DHT22;3222;48.858;10.128;2023-02-15T19:36:47;5.30;99.90
6379;DHT22;3222;48.858;10.128;2023-02-15T19:39:29;5.30;99.90
6379;DHT22;3222;48.858;10.128;2023-02-15T19:41:57;5.30;99.90